createdAt,value
2023-02-26T00:02:27.029Z,98249.00
2023-02-26T00:04:57.992Z,98248.00
2023-02-26T00:07:29.495Z,98254.00
2023-02-26T00:10:03.960Z,98249.00
2023-02-26T00:12:35.765Z,98257.00
2023-02-26T00:15:08.450Z,98255.00
2023-02-26T00:18:07.583Z,98260.00
2023-02-26T00:20:38.826Z,98250.00
2023-02-26T00:23:15.955Z,98256.00
2023-02-26T00:25:47.362Z,98250.00
2023-02-26T00:28:18.621Z,98256.00
2023-02-26T00:30:50.081Z,98252.00
2023-02-26T00:33:21.444Z,98255.00
2023-02-26T00:36:04.124Z,98256.00
2023-02-26T00:38:36.717Z,98254.00
2023-02-26T00:41:08.850Z,98256.00
2023-02-26T00:43:40.260Z,98260.00
2023-02-26T00:46:37.155Z,98266.00
2023-02-26T00:49:32.296Z,98261.00
2023-02-26T00:52:06.871Z,98266.00
2023-02-26T00:54:37.762Z,98260.00
2023-02-26T00:57:08.607Z,98263.00
2023-02-26T00:59:39.476Z,98268.00
2023-02-26T01:02:10.448Z,98266.00
2023-02-26T01:04:42.294Z,98265.00
2023-02-26T01:07:14.246Z,98267.00
2023-02-26T01:09:45.576Z,98261.00
2023-02-26T01:12:17.597Z,98265.00
2023-02-26T01:14:50.454Z,98262.00
2023-02-26T01:17:33.465Z,98258.00
2023-02-26T01:20:37.467Z,98261.00
2023-02-26T01:23:27.682Z,98253.00
2023-02-26T01:26:12.132Z,98249.00
2023-02-26T01:28:43.439Z,98267.00
2023-02-26T01:31:39.821Z,98275.00
2023-02-26T01:34:22.531Z,98264.00
2023-02-26T01:37:26.166Z,98267.00
2023-02-26T01:40:53.505Z,98259.00
2023-02-26T01:43:52.351Z,98272.00
2023-02-26T01:46:29.126Z,98272.00
2023-02-26T01:49:01.381Z,98274.00
2023-02-26T01:51:57.353Z,98278.00
2023-02-26T01:54:38.420Z,98274.00
2023-02-26T01:57:17.785Z,98272.00
2023-02-26T01:59:51.888Z,98272.00
2023-02-26T02:02:25.621Z,98279.00
2023-02-26T02:04:56.800Z,98273.00
2023-02-26T02:07:27.800Z,98286.00
2023-02-26T02:09:59.000Z,98285.00
2023-02-26T02:12:53.221Z,98278.00
2023-02-26T02:15:48.351Z,98280.00
2023-02-26T02:18:22.962Z,98272.00
2023-02-26T02:21:33.885Z,98296.00
2023-02-26T02:24:13.615Z,98292.00
2023-02-26T02:26:56.678Z,98293.00
2023-02-26T02:29:54.871Z,98297.00
2023-02-26T02:32:58.863Z,98295.00
2023-02-26T02:35:42.121Z,98302.00
2023-02-26T02:38:31.711Z,98307.00
2023-02-26T02:41:20.578Z,98303.00
2023-02-26T02:43:53.052Z,98304.00
2023-02-26T02:46:30.183Z,98308.00
2023-02-26T02:49:13.723Z,98307.00
2023-02-26T02:52:06.727Z,98311.00
2023-02-26T02:54:58.405Z,98304.00
2023-02-26T02:57:39.027Z,98318.00
2023-02-26T03:00:12.656Z,98318.00
2023-02-26T03:03:12.090Z,98315.00
2023-02-26T03:05:43.218Z,98321.00
2023-02-26T03:08:19.733Z,98323.00
2023-02-26T03:10:50.896Z,98319.00
2023-02-26T03:13:25.081Z,98325.00
2023-02-26T03:16:36.895Z,98334.00
2023-02-26T03:19:41.860Z,98331.00
2023-02-26T03:22:21.550Z,98335.00
2023-02-26T03:25:09.564Z,98330.00
2023-02-26T03:27:55.667Z,98329.00
2023-02-26T03:30:34.982Z,98338.00
2023-02-26T03:33:39.416Z,98335.00
2023-02-26T03:36:28.237Z,98330.00
2023-02-26T03:39:32.170Z,98332.00
2023-02-26T03:42:10.162Z,98339.00
2023-02-26T03:44:56.164Z,98335.00
2023-02-26T03:47:28.262Z,98344.00
2023-02-26T03:50:09.594Z,98342.00
2023-02-26T03:52:43.448Z,98339.00
2023-02-26T03:55:20.314Z,98345.00
2023-02-26T03:57:51.278Z,98346.00
2023-02-26T04:00:23.593Z,98359.00
2023-02-26T04:03:03.915Z,98357.00
2023-02-26T04:05:42.641Z,98362.00
2023-02-26T04:08:13.728Z,98355.00
2023-02-26T04:10:58.607Z,98365.00
2023-02-26T04:13:29.583Z,98368.00
2023-02-26T04:16:00.520Z,98370.00
2023-02-26T04:18:31.774Z,98370.00
2023-02-26T04:21:02.769Z,98374.00
2023-02-26T04:23:33.880Z,98372.00
2023-02-26T04:26:05.038Z,98371.00
2023-02-26T04:28:37.878Z,98380.00
2023-02-26T04:31:10.774Z,98379.00
2023-02-26T04:33:41.761Z,98381.00
2023-02-26T04:36:12.681Z,98390.00
2023-02-26T04:38:43.539Z,98395.00
2023-02-26T04:41:14.486Z,98397.00
2023-02-26T04:43:45.371Z,98399.00
2023-02-26T04:46:16.313Z,98396.00
2023-02-26T04:48:47.305Z,98401.00
2023-02-26T04:51:18.215Z,98400.00
2023-02-26T04:53:49.120Z,98406.00
2023-02-26T04:56:20.057Z,98413.00
2023-02-26T04:58:51.005Z,98410.00
2023-02-26T05:01:21.928Z,98405.00
2023-02-26T05:03:52.903Z,98409.00
2023-02-26T05:06:24.088Z,98409.00
2023-02-26T05:08:55.137Z,98412.00
2023-02-26T05:11:26.012Z,98417.00
2023-02-26T05:13:56.974Z,98420.00
2023-02-26T05:16:28.280Z,98417.00
2023-02-26T05:18:59.546Z,98414.00
2023-02-26T05:21:30.400Z,98422.00
2023-02-26T05:24:01.393Z,98420.00
2023-02-26T05:26:32.317Z,98428.00
2023-02-26T05:29:03.268Z,98432.00
2023-02-26T05:31:34.190Z,98441.00
2023-02-26T05:34:05.190Z,98441.00
2023-02-26T05:36:36.180Z,98441.00
2023-02-26T05:39:07.052Z,98439.00
2023-02-26T05:41:37.929Z,98444.00
2023-02-26T05:44:09.237Z,98449.00
2023-02-26T05:46:40.230Z,98451.00
2023-02-26T05:49:11.211Z,98457.00
2023-02-26T05:51:42.880Z,98456.00
2023-02-26T05:54:13.792Z,98468.00
2023-02-26T05:56:44.896Z,98475.00
2023-02-26T05:59:15.792Z,98469.00
2023-02-26T06:01:46.795Z,98472.00
2023-02-26T06:04:17.975Z,98470.00
2023-02-26T06:06:48.833Z,98474.00
2023-02-26T06:09:19.722Z,98479.00
2023-02-26T06:11:50.776Z,98484.00
2023-02-26T06:14:21.724Z,98486.00
2023-02-26T06:16:52.580Z,98480.00
2023-02-26T06:19:23.480Z,98483.00
2023-02-26T06:21:54.430Z,98496.00
2023-02-26T06:24:25.565Z,98495.00
2023-02-26T06:26:56.487Z,98497.00
2023-02-26T06:29:27.377Z,98507.00
2023-02-26T06:31:58.373Z,98512.00
2023-02-26T06:34:29.293Z,98510.00
2023-02-26T06:37:00.279Z,98520.00
2023-02-26T06:39:31.478Z,98524.00
2023-02-26T06:42:02.408Z,98520.00
2023-02-26T06:44:33.356Z,98523.00
2023-02-26T06:47:04.630Z,98537.00
2023-02-26T06:49:35.508Z,98543.00
2023-02-26T06:52:06.640Z,98546.00
2023-02-26T06:54:37.540Z,98557.00
2023-02-26T06:57:08.399Z,98561.00
2023-02-26T06:59:39.404Z,98559.00
2023-02-26T07:02:18.045Z,98557.00
2023-02-26T07:04:49.546Z,98559.00
2023-02-26T07:07:20.574Z,98560.00
2023-02-26T07:09:51.559Z,98558.00
2023-02-26T07:12:22.481Z,98572.00
2023-02-26T07:14:53.409Z,98572.00
2023-02-26T07:17:24.368Z,98578.00
2023-02-26T07:19:55.245Z,98574.00
2023-02-26T07:22:26.134Z,98573.00
2023-02-26T07:24:57.014Z,98578.00
2023-02-26T07:27:29.946Z,98577.00
2023-02-26T07:30:01.538Z,98571.00
2023-02-26T07:32:32.833Z,98580.00
2023-02-26T07:35:04.413Z,98578.00
2023-02-26T07:37:35.267Z,98586.00
2023-02-26T07:40:07.280Z,98588.00
2023-02-26T07:42:38.452Z,98583.00
2023-02-26T07:45:10.221Z,98593.00
2023-02-26T07:47:41.054Z,98596.00
2023-02-26T07:50:12.325Z,98588.00
2023-02-26T07:52:43.268Z,98595.00
2023-02-26T07:55:14.521Z,98599.00
2023-02-26T07:57:45.623Z,98602.00
2023-02-26T08:00:17.615Z,98604.00
2023-02-26T08:02:48.554Z,98604.00
2023-02-26T08:05:19.742Z,98595.00
2023-02-26T08:07:50.585Z,98601.00
2023-02-26T08:10:21.508Z,98591.00
2023-02-26T08:12:52.415Z,98594.00
2023-02-26T08:15:23.514Z,98596.00
2023-02-26T08:17:54.745Z,98584.00
2023-02-26T08:20:25.757Z,98587.00
2023-02-26T08:22:56.680Z,98591.00
2023-02-26T08:25:27.590Z,98590.00
2023-02-26T08:27:58.685Z,98593.00
2023-02-26T08:30:30.440Z,98629.00
2023-02-26T08:33:01.300Z,98605.00
2023-02-26T08:35:32.251Z,98602.00
2023-02-26T08:38:03.139Z,98606.00
2023-02-26T08:40:34.017Z,98608.00
2023-02-26T08:43:04.983Z,98600.00
2023-02-26T08:45:35.954Z,98617.00
2023-02-26T08:48:09.871Z,98626.00
2023-02-26T08:50:41.868Z,98628.00
2023-02-26T08:53:12.844Z,98630.00
2023-02-26T08:55:44.989Z,98631.00
2023-02-26T08:58:16.151Z,98635.00
2023-02-26T09:00:47.640Z,98634.00
2023-02-26T09:03:18.583Z,98633.00
2023-02-26T09:05:51.122Z,98645.00
2023-02-26T09:08:21.966Z,98633.00
2023-02-26T09:10:52.898Z,98640.00
2023-02-26T09:13:23.727Z,98634.00
2023-02-26T09:15:54.813Z,98653.00
2023-02-26T09:18:25.859Z,98637.00
2023-02-26T09:20:57.133Z,98641.00
2023-02-26T09:23:28.008Z,98649.00
2023-02-26T09:25:59.023Z,98649.00
2023-02-26T09:28:29.913Z,98653.00
2023-02-26T09:31:00.957Z,98652.00
2023-02-26T09:33:31.848Z,98654.00
2023-02-26T09:36:02.876Z,98654.00
2023-02-26T09:38:36.020Z,98664.00
2023-02-26T09:41:17.084Z,98668.00
2023-02-26T09:44:04.067Z,98672.00
2023-02-26T09:47:07.454Z,98686.00
2023-02-26T09:49:57.459Z,98683.00
2023-02-26T09:52:46.930Z,98684.00
2023-02-26T09:55:43.674Z,98689.00
2023-02-26T09:58:33.765Z,98694.00
2023-02-26T10:01:14.562Z,98695.00
2023-02-26T10:04:24.461Z,98684.00
2023-02-26T10:07:21.136Z,98692.00
2023-02-26T10:10:24.481Z,98708.00
2023-02-26T10:12:56.746Z,98698.00
2023-02-26T10:15:37.626Z,98707.00
2023-02-26T10:18:27.021Z,98712.00
2023-02-26T10:21:13.312Z,98696.00
2023-02-26T10:23:52.063Z,98705.00
2023-02-26T10:26:46.820Z,98699.00
2023-02-26T10:29:45.546Z,98703.00
2023-02-26T10:32:52.255Z,98702.00
2023-02-26T10:35:27.681Z,98715.00
2023-02-26T10:38:04.592Z,98708.00
2023-02-26T10:40:44.010Z,98715.00
2023-02-26T10:43:40.781Z,98702.00
2023-02-26T10:46:32.810Z,98715.00
2023-02-26T10:49:45.290Z,98710.00
2023-02-26T10:52:20.561Z,98712.00
2023-02-26T10:55:29.812Z,98713.00
2023-02-26T10:58:16.704Z,98722.00
2023-02-26T11:00:53.810Z,98727.00
2023-02-26T11:03:30.344Z,98704.00
2023-02-26T11:06:06.739Z,98718.00
2023-02-26T11:08:43.731Z,98713.00
2023-02-26T11:11:37.779Z,98704.00
2023-02-26T11:14:10.029Z,98712.00
2023-02-26T11:16:49.247Z,98699.00
2023-02-26T11:19:28.728Z,98700.00
2023-02-26T11:22:02.628Z,98687.00
2023-02-26T11:24:38.514Z,98697.00
2023-02-26T11:27:26.834Z,98699.00
2023-02-26T11:30:03.658Z,98703.00
2023-02-26T11:32:37.444Z,98701.00
2023-02-26T11:35:09.666Z,98701.00
2023-02-26T11:37:48.419Z,98694.00
2023-02-26T11:40:38.690Z,98693.00
2023-02-26T11:43:19.260Z,98690.00
2023-02-26T11:45:59.001Z,98712.00
2023-02-26T11:48:43.841Z,98687.00
2023-02-26T11:51:25.963Z,98697.00
2023-02-26T11:54:01.972Z,98701.00
2023-02-26T11:56:42.857Z,98705.00
2023-02-26T11:59:24.966Z,98703.00
2023-02-26T12:01:55.831Z,98714.00
2023-02-26T12:04:27.878Z,98756.00
2023-02-26T12:06:58.925Z,98722.00
2023-02-26T12:09:29.797Z,98714.00
2023-02-26T12:12:13.663Z,98724.00
2023-02-26T12:15:20.702Z,98708.00
2023-02-26T12:18:06.539Z,98724.00
2023-02-26T12:20:54.334Z,98721.00
2023-02-26T12:24:01.912Z,98707.00
2023-02-26T12:26:41.356Z,98717.00
2023-02-26T12:29:40.230Z,98721.00
2023-02-26T12:33:01.389Z,98732.00
2023-02-26T12:36:00.954Z,98730.00
2023-02-26T12:38:48.329Z,98726.00
2023-02-26T12:41:40.429Z,98726.00
2023-02-26T12:44:51.418Z,98721.00
2023-02-26T12:47:30.995Z,98715.00
2023-02-26T12:50:19.891Z,98720.00
2023-02-26T12:53:16.008Z,98718.00
2023-02-26T12:55:55.617Z,98719.00
2023-02-26T12:58:53.998Z,98706.00
2023-02-26T13:02:10.004Z,98701.00
2023-02-26T13:05:36.806Z,98721.00
2023-02-26T13:08:59.389Z,98719.00
2023-02-26T13:11:57.784Z,98724.00
2023-02-26T13:15:18.503Z,98748.00
2023-02-26T13:18:26.430Z,98722.00
2023-02-26T13:21:29.145Z,98727.00
2023-02-26T13:24:12.414Z,98722.00
2023-02-26T13:26:45.034Z,98714.00
2023-02-26T13:29:28.944Z,98720.00
2023-02-26T13:32:15.097Z,98723.00
2023-02-26T13:34:58.767Z,98725.00
2023-02-26T13:37:41.549Z,98719.00
2023-02-26T13:40:54.943Z,98725.00
2023-02-26T13:43:48.342Z,98720.00
2023-02-26T13:46:57.155Z,98722.00
2023-02-26T13:49:51.004Z,98732.00
2023-02-26T13:52:35.412Z,98732.00
2023-02-26T13:55:07.053Z,98735.00
2023-02-26T13:57:54.204Z,98736.00
2023-02-26T14:00:36.356Z,98720.00
2023-02-26T14:03:36.655Z,98738.00
2023-02-26T14:06:11.854Z,98741.00
2023-02-26T14:08:47.055Z,98743.00
2023-02-26T14:11:18.404Z,98739.00
2023-02-26T14:14:19.159Z,98747.00
2023-02-26T14:17:08.392Z,98741.00
2023-02-26T14:19:42.306Z,98742.00
2023-02-26T14:22:23.856Z,98739.00
2023-02-26T14:24:54.706Z,98741.00
2023-02-26T14:27:38.796Z,98745.00
2023-02-26T14:30:09.688Z,98741.00
2023-02-26T14:32:55.298Z,98753.00
2023-02-26T14:35:31.632Z,98782.00
2023-02-26T14:38:12.973Z,98755.00
2023-02-26T14:40:51.039Z,98758.00
2023-02-26T14:43:43.885Z,98749.00
2023-02-26T14:46:15.297Z,98751.00
2023-02-26T14:48:47.407Z,98749.00
2023-02-26T14:51:45.522Z,98741.00
2023-02-26T14:54:43.771Z,98745.00
2023-02-26T14:57:44.175Z,98749.00
2023-02-26T15:00:45.355Z,98766.00
2023-02-26T15:04:05.701Z,98764.00
2023-02-26T15:07:04.190Z,98767.00
2023-02-26T15:10:23.053Z,98767.00
2023-02-26T15:13:32.020Z,98769.00
2023-02-26T15:16:43.083Z,98769.00
2023-02-26T15:20:20.204Z,98788.00
2023-02-26T15:23:05.745Z,98778.00
2023-02-26T15:25:42.220Z,98793.00
2023-02-26T15:28:27.260Z,98779.00
2023-02-26T15:31:02.795Z,98791.00
2023-02-26T15:33:34.509Z,98800.00
2023-02-26T15:36:12.635Z,98802.00
2023-02-26T15:38:50.347Z,98794.00
2023-02-26T15:41:23.531Z,98802.00
2023-02-26T15:44:03.896Z,98820.00
2023-02-26T15:46:41.624Z,98803.00
2023-02-26T15:49:29.703Z,98791.00
2023-02-26T15:52:03.751Z,98803.00
2023-02-26T15:55:00.288Z,98805.00
2023-02-26T15:57:32.104Z,98805.00
2023-02-26T16:00:16.326Z,98804.00
2023-02-26T16:02:50.329Z,98822.00
2023-02-26T16:05:21.749Z,98816.00
2023-02-26T16:07:52.830Z,98828.00
2023-02-26T16:10:41.196Z,98823.00
2023-02-26T16:13:27.152Z,98832.00
2023-02-26T16:16:25.067Z,98836.00
2023-02-26T16:18:57.796Z,98839.00
2023-02-26T16:21:38.525Z,98848.00
2023-02-26T16:24:18.878Z,98843.00
2023-02-26T16:26:57.830Z,98859.00
2023-02-26T16:29:32.069Z,98860.00
2023-02-26T16:32:05.347Z,98866.00
2023-02-26T16:34:52.189Z,98868.00
2023-02-26T16:37:29.274Z,98877.00
2023-02-26T16:40:09.278Z,98891.00
2023-02-26T16:43:05.298Z,98886.00
2023-02-26T16:45:36.800Z,98885.00
2023-02-26T16:48:31.749Z,98892.00
2023-02-26T16:51:14.551Z,98901.00
2023-02-26T16:54:05.281Z,98908.00
2023-02-26T16:56:42.554Z,98919.00
2023-02-26T16:59:13.535Z,98919.00
2023-02-26T17:02:24.644Z,98910.00
2023-02-26T17:05:02.503Z,98919.00
2023-02-26T17:07:37.104Z,98925.00
2023-02-26T17:10:39.337Z,98922.00
2023-02-26T17:13:28.666Z,98928.00
2023-02-26T17:16:08.356Z,98934.00
2023-02-26T17:18:39.720Z,98930.00
2023-02-26T17:21:10.870Z,98939.00
2023-02-26T17:23:42.062Z,98944.00
2023-02-26T17:26:13.352Z,98946.00
2023-02-26T17:28:45.217Z,98949.00
2023-02-26T17:31:16.247Z,98950.00
2023-02-26T17:33:47.244Z,98961.00
2023-02-26T17:36:20.511Z,98959.00
2023-02-26T17:38:51.649Z,98971.00
2023-02-26T17:41:22.746Z,98967.00
2023-02-26T17:43:53.754Z,98984.00
2023-02-26T17:46:24.799Z,98984.00
2023-02-26T17:48:55.890Z,98980.00
2023-02-26T17:51:27.685Z,98991.00
2023-02-26T17:53:59.033Z,98991.00
2023-02-26T17:56:33.346Z,98984.00
2023-02-26T17:59:07.225Z,98997.00
2023-02-26T18:01:38.729Z,98993.00
2023-02-26T18:04:10.169Z,98991.00
2023-02-26T18:06:41.513Z,98983.00
2023-02-26T18:09:13.741Z,98988.00
2023-02-26T18:11:44.930Z,99002.00
2023-02-26T18:14:16.219Z,98988.00
2023-02-26T18:16:47.561Z,98995.00
2023-02-26T18:19:18.996Z,99005.00
2023-02-26T18:21:50.135Z,99006.00
2023-02-26T18:24:21.449Z,99018.00
2023-02-26T18:26:52.908Z,99015.00
2023-02-26T18:29:23.758Z,99006.00
2023-02-26T18:31:54.985Z,99014.00
2023-02-26T18:34:26.640Z,99013.00
2023-02-26T18:36:57.812Z,99014.00
2023-02-26T18:39:32.590Z,99020.00
2023-02-26T18:42:05.307Z,99024.00
2023-02-26T18:44:36.692Z,99018.00
2023-02-26T18:47:09.068Z,99019.00
2023-02-26T18:49:40.163Z,99019.00
2023-02-26T18:52:11.793Z,99034.00
2023-02-26T18:54:42.766Z,99026.00
2023-02-26T18:57:15.199Z,99033.00
2023-02-26T18:59:46.087Z,99026.00
2023-02-26T19:02:17.412Z,99022.00
2023-02-26T19:04:48.524Z,99027.00
2023-02-26T19:07:19.433Z,99030.00
2023-02-26T19:09:50.450Z,99023.00
2023-02-26T19:12:23.184Z,99022.00
2023-02-26T19:14:54.499Z,99038.00
2023-02-26T19:17:25.449Z,99033.00
2023-02-26T19:19:56.316Z,99029.00
2023-02-26T19:22:27.341Z,99036.00
2023-02-26T19:24:58.309Z,99048.00
2023-02-26T19:27:29.264Z,99054.00
2023-02-26T19:30:00.169Z,99052.00
2023-02-26T19:32:31.448Z,99039.00
2023-02-26T19:35:02.504Z,99047.00
2023-02-26T19:37:33.394Z,99055.00
2023-02-26T19:40:10.399Z,99041.00
2023-02-26T19:42:41.484Z,99064.00
2023-02-26T19:45:14.562Z,99065.00
2023-02-26T19:47:45.524Z,99071.00
2023-02-26T19:50:19.152Z,99069.00
2023-02-26T19:52:50.035Z,99074.00
2023-02-26T19:55:21.105Z,99079.00
2023-02-26T19:57:52.026Z,99081.00
2023-02-26T20:00:23.446Z,99088.00
2023-02-26T20:02:55.678Z,99094.00
2023-02-26T20:05:26.728Z,99096.00
2023-02-26T20:07:57.620Z,99104.00
2023-02-26T20:10:29.293Z,99101.00
2023-02-26T20:13:00.140Z,99096.00
2023-02-26T20:15:31.083Z,99099.00
2023-02-26T20:18:01.965Z,99104.00
2023-02-26T20:20:32.893Z,99120.00
2023-02-26T20:23:03.989Z,99110.00
2023-02-26T20:25:34.917Z,99108.00
2023-02-26T20:28:05.845Z,99116.00
2023-02-26T20:30:37.408Z,99111.00
2023-02-26T20:33:08.506Z,99116.00
2023-02-26T20:35:45.749Z,99134.00
2023-02-26T20:38:19.071Z,99121.00
2023-02-26T20:40:50.135Z,99124.00
2023-02-26T20:43:21.143Z,99127.00
2023-02-26T20:45:54.003Z,99130.00
2023-02-26T20:48:25.306Z,99141.00
2023-02-26T20:51:01.854Z,99133.00
2023-02-26T20:53:32.781Z,99141.00
2023-02-26T20:56:04.100Z,99140.00
2023-02-26T20:58:35.108Z,99142.00
2023-02-26T21:01:06.251Z,99144.00
2023-02-26T21:03:37.202Z,99140.00
2023-02-26T21:06:08.695Z,99146.00
2023-02-26T21:08:39.574Z,99143.00
2023-02-26T21:11:10.526Z,99139.00
2023-02-26T21:13:41.436Z,99149.00
2023-02-26T21:16:13.462Z,99150.00
2023-02-26T21:18:44.417Z,99145.00
2023-02-26T21:21:15.439Z,99156.00
2023-02-26T21:23:46.417Z,99159.00
2023-02-26T21:26:17.503Z,99158.00
2023-02-26T21:28:48.741Z,99158.00
2023-02-26T21:31:21.926Z,99167.00
2023-02-26T21:33:53.039Z,99177.00
2023-02-26T21:36:24.123Z,99174.00
2023-02-26T21:38:55.066Z,99178.00
2023-02-26T21:41:26.178Z,99177.00
2023-02-26T21:43:57.178Z,99186.00
2023-02-26T21:46:28.195Z,99173.00
2023-02-26T21:48:59.022Z,99169.00
2023-02-26T21:51:30.213Z,99167.00
2023-02-26T21:54:01.219Z,99163.00
2023-02-26T21:56:32.245Z,99175.00
2023-02-26T21:59:03.441Z,99161.00
2023-02-26T22:01:34.729Z,99171.00
2023-02-26T22:04:05.705Z,99161.00
2023-02-26T22:06:37.280Z,99162.00
2023-02-26T22:09:08.306Z,99166.00
2023-02-26T22:11:39.506Z,99157.00
2023-02-26T22:14:10.398Z,99160.00
2023-02-26T22:16:41.345Z,99166.00
2023-02-26T22:19:12.499Z,99157.00
2023-02-26T22:21:43.412Z,99161.00
2023-02-26T22:24:14.292Z,99162.00
2023-02-26T22:26:46.998Z,99163.00
2023-02-26T22:29:19.364Z,99157.00
2023-02-26T22:31:51.032Z,99153.00
2023-02-26T22:34:22.266Z,99154.00
2023-02-26T22:36:53.900Z,99157.00
2023-02-26T22:39:24.886Z,99159.00
2023-02-26T22:41:55.780Z,99168.00
2023-02-26T22:44:26.842Z,99177.00
2023-02-26T22:46:57.816Z,99165.00
2023-02-26T22:49:28.859Z,99158.00
2023-02-26T22:51:59.738Z,99166.00
2023-02-26T22:54:30.625Z,99162.00
2023-02-26T22:57:01.517Z,99171.00
2023-02-26T22:59:32.384Z,99166.00
2023-02-26T23:02:03.402Z,99162.00
2023-02-26T23:04:34.684Z,99167.00
2023-02-26T23:07:05.604Z,99171.00
2023-02-26T23:09:37.336Z,99173.00
2023-02-26T23:12:09.238Z,99178.00
2023-02-26T23:14:40.304Z,99182.00
2023-02-26T23:17:11.773Z,99184.00
2023-02-26T23:19:42.689Z,99186.00
2023-02-26T23:22:13.570Z,99182.00
2023-02-26T23:24:46.375Z,99178.00
2023-02-26T23:27:17.855Z,99182.00
2023-02-26T23:29:48.725Z,99184.00
2023-02-26T23:32:19.822Z,99183.00
2023-02-26T23:34:50.757Z,99179.00
2023-02-26T23:37:21.744Z,99184.00
2023-02-26T23:39:53.041Z,99187.00
2023-02-26T23:42:24.022Z,99179.00
2023-02-26T23:44:54.900Z,99194.00
2023-02-26T23:47:25.871Z,99186.00
2023-02-26T23:49:56.756Z,99185.00
2023-02-26T23:52:27.768Z,99188.00
2023-02-26T23:54:58.894Z,99198.00
2023-02-26T23:57:30.776Z,99188.00
